sensor_id;sensor_type;location;lat;lon;timestamp;P1;durP1;ratioP1;P2;durP2;ratioP2
85093;SDS011;75432;49.056;12.004;2024-01-30T00:00:00;29.57;;;16.20;;
85093;SDS011;75432;49.056;12.004;2024-01-30T00:02:30;21.97;;;12.77;;
85093;SDS011;75432;49.056;12.004;2024-01-30T00:04:56;31.67;;;15.30;;
85093;SDS011;75432;49.056;12.004;2024-01-30T00:07:23;20.83;;;12.67;;
85093;SDS011;75432;49.056;12.004;2024-01-30T00:09:50;31.70;;;14.67;;
85093;SDS011;75432;49.056;12.004;2024-01-30T00:12:16;21.33;;;12.57;;
85093;SDS011;75432;49.056;12.004;2024-01-30T00:14:43;24.17;;;13.53;;
85093;SDS011;75432;49.056;12.004;2024-01-30T00:17:09;21.90;;;10.77;;
85093;SDS011;75432;49.056;12.004;2024-01-30T00:19:36;22.40;;;12.60;;
85093;SDS011;75432;49.056;12.004;2024-01-30T00:22:03;23.17;;;13.33;;
85093;SDS011;75432;49.056;12.004;2024-01-30T00:24:29;25.20;;;14.70;;
85093;SDS011;75432;49.056;12.004;2024-01-30T00:26:56;32.40;;;16.43;;
85093;SDS011;75432;49.056;12.004;2024-01-30T00:29:22;29.53;;;14.93;;
85093;SDS011;75432;49.056;12.004;2024-01-30T00:31:49;24.33;;;13.33;;
85093;SDS011;75432;49.056;12.004;2024-01-30T00:34:16;18.57;;;9.73;;
85093;SDS011;75432;49.056;12.004;2024-01-30T00:36:42;24.57;;;12.47;;
85093;SDS011;75432;49.056;12.004;2024-01-30T00:39:09;25.83;;;14.07;;
85093;SDS011;75432;49.056;12.004;2024-01-30T00:41:36;22.13;;;13.33;;
85093;SDS011;75432;49.056;12.004;2024-01-30T00:44:02;21.70;;;11.93;;
85093;SDS011;75432;49.056;12.004;2024-01-30T00:46:29;25.50;;;14.37;;
85093;SDS011;75432;49.056;12.004;2024-01-30T00:48:55;14.73;;;8.90;;
85093;SDS011;75432;49.056;12.004;2024-01-30T00:51:22;31.73;;;15.90;;
85093;SDS011;75432;49.056;12.004;2024-01-30T00:53:48;16.00;;;9.20;;
85093;SDS011;75432;49.056;12.004;2024-01-30T00:56:15;24.43;;;13.73;;
85093;SDS011;75432;49.056;12.004;2024-01-30T00:58:44;32.90;;;14.70;;
85093;SDS011;75432;49.056;12.004;2024-01-30T01:01:11;26.17;;;12.17;;
85093;SDS011;75432;49.056;12.004;2024-01-30T01:03:37;17.53;;;10.37;;
85093;SDS011;75432;49.056;12.004;2024-01-30T01:06:04;30.50;;;13.70;;
85093;SDS011;75432;49.056;12.004;2024-01-30T01:08:31;25.37;;;13.77;;
85093;SDS011;75432;49.056;12.004;2024-01-30T01:10:57;20.83;;;11.33;;
85093;SDS011;75432;49.056;12.004;2024-01-30T01:13:23;25.03;;;14.30;;
85093;SDS011;75432;49.056;12.004;2024-01-30T01:15:50;38.07;;;18.60;;
85093;SDS011;75432;49.056;12.004;2024-01-30T01:18:16;32.17;;;16.70;;
85093;SDS011;75432;49.056;12.004;2024-01-30T01:20:43;27.87;;;17.07;;
85093;SDS011;75432;49.056;12.004;2024-01-30T01:23:09;33.23;;;17.73;;
85093;SDS011;75432;49.056;12.004;2024-01-30T01:25:36;29.20;;;16.20;;
85093;SDS011;75432;49.056;12.004;2024-01-30T01:28:02;33.43;;;16.80;;
85093;SDS011;75432;49.056;12.004;2024-01-30T01:30:30;29.33;;;15.73;;
85093;SDS011;75432;49.056;12.004;2024-01-30T01:32:56;19.93;;;11.43;;
85093;SDS011;75432;49.056;12.004;2024-01-30T01:35:26;34.20;;;17.30;;
85093;SDS011;75432;49.056;12.004;2024-01-30T01:37:53;24.57;;;14.47;;
85093;SDS011;75432;49.056;12.004;2024-01-30T01:40:25;37.27;;;18.73;;
85093;SDS011;75432;49.056;12.004;2024-01-30T01:42:52;34.40;;;20.30;;
85093;SDS011;75432;49.056;12.004;2024-01-30T01:45:21;21.83;;;11.07;;
85093;SDS011;75432;49.056;12.004;2024-01-30T01:47:49;31.97;;;16.97;;
85093;SDS011;75432;49.056;12.004;2024-01-30T01:50:17;30.40;;;15.90;;
85093;SDS011;75432;49.056;12.004;2024-01-30T01:52:46;28.50;;;15.37;;
85093;SDS011;75432;49.056;12.004;2024-01-30T01:55:14;28.27;;;15.87;;
85093;SDS011;75432;49.056;12.004;2024-01-30T01:57:44;34.83;;;16.50;;
85093;SDS011;75432;49.056;12.004;2024-01-30T02:00:11;31.63;;;16.77;;
85093;SDS011;75432;49.056;12.004;2024-01-30T02:02:38;16.87;;;10.07;;
85093;SDS011;75432;49.056;12.004;2024-01-30T02:05:05;16.03;;;8.60;;
85093;SDS011;75432;49.056;12.004;2024-01-30T02:07:32;29.93;;;16.10;;
85093;SDS011;75432;49.056;12.004;2024-01-30T02:09:58;19.53;;;11.03;;
85093;SDS011;75432;49.056;12.004;2024-01-30T02:12:25;16.77;;;8.90;;
85093;SDS011;75432;49.056;12.004;2024-01-30T02:14:52;34.03;;;16.10;;
85093;SDS011;75432;49.056;12.004;2024-01-30T02:17:19;14.07;;;8.93;;
85093;SDS011;75432;49.056;12.004;2024-01-30T02:19:46;37.07;;;18.80;;
85093;SDS011;75432;49.056;12.004;2024-01-30T02:22:13;46.40;;;22.10;;
85093;SDS011;75432;49.056;12.004;2024-01-30T02:24:39;42.23;;;20.43;;
85093;SDS011;75432;49.056;12.004;2024-01-30T02:27:06;28.30;;;16.13;;
85093;SDS011;75432;49.056;12.004;2024-01-30T02:29:33;36.57;;;19.60;;
85093;SDS011;75432;49.056;12.004;2024-01-30T02:31:59;30.63;;;15.97;;
85093;SDS011;75432;49.056;12.004;2024-01-30T02:34:26;28.90;;;16.53;;
85093;SDS011;75432;49.056;12.004;2024-01-30T02:36:53;39.10;;;20.37;;
85093;SDS011;75432;49.056;12.004;2024-01-30T02:39:19;32.77;;;18.20;;
85093;SDS011;75432;49.056;12.004;2024-01-30T02:41:46;36.73;;;19.10;;
85093;SDS011;75432;49.056;12.004;2024-01-30T02:44:12;40.17;;;20.93;;
85093;SDS011;75432;49.056;12.004;2024-01-30T02:46:39;36.13;;;18.87;;
85093;SDS011;75432;49.056;12.004;2024-01-30T02:49:05;30.87;;;15.43;;
85093;SDS011;75432;49.056;12.004;2024-01-30T02:51:32;34.17;;;16.97;;
85093;SDS011;75432;49.056;12.004;2024-01-30T02:53:58;30.13;;;16.67;;
85093;SDS011;75432;49.056;12.004;2024-01-30T02:56:25;20.63;;;12.80;;
85093;SDS011;75432;49.056;12.004;2024-01-30T02:58:51;36.30;;;16.70;;
85093;SDS011;75432;49.056;12.004;2024-01-30T03:01:17;41.13;;;19.23;;
85093;SDS011;75432;49.056;12.004;2024-01-30T03:03:44;36.50;;;18.30;;
85093;SDS011;75432;49.056;12.004;2024-01-30T03:06:11;34.47;;;18.80;;
85093;SDS011;75432;49.056;12.004;2024-01-30T03:08:37;34.60;;;19.33;;
85093;SDS011;75432;49.056;12.004;2024-01-30T03:11:04;40.30;;;20.60;;
85093;SDS011;75432;49.056;12.004;2024-01-30T03:13:30;27.80;;;14.90;;
85093;SDS011;75432;49.056;12.004;2024-01-30T03:15:57;33.73;;;18.80;;
85093;SDS011;75432;49.056;12.004;2024-01-30T03:18:23;35.47;;;20.23;;
85093;SDS011;75432;49.056;12.004;2024-01-30T03:20:50;39.70;;;20.67;;
85093;SDS011;75432;49.056;12.004;2024-01-30T03:23:16;33.73;;;18.60;;
85093;SDS011;75432;49.056;12.004;2024-01-30T03:25:43;36.40;;;19.27;;
85093;SDS011;75432;49.056;12.004;2024-01-30T03:28:09;39.93;;;17.93;;
85093;SDS011;75432;49.056;12.004;2024-01-30T03:30:36;35.37;;;18.77;;
85093;SDS011;75432;49.056;12.004;2024-01-30T03:33:02;32.43;;;17.83;;
85093;SDS011;75432;49.056;12.004;2024-01-30T03:35:29;39.40;;;20.57;;
85093;SDS011;75432;49.056;12.004;2024-01-30T03:37:55;37.80;;;18.37;;
85093;SDS011;75432;49.056;12.004;2024-01-30T03:40:22;38.97;;;18.70;;
85093;SDS011;75432;49.056;12.004;2024-01-30T03:42:48;27.80;;;15.20;;
85093;SDS011;75432;49.056;12.004;2024-01-30T03:45:15;26.00;;;13.97;;
85093;SDS011;75432;49.056;12.004;2024-01-30T03:47:43;35.50;;;18.77;;
85093;SDS011;75432;49.056;12.004;2024-01-30T03:50:10;34.50;;;17.57;;
85093;SDS011;75432;49.056;12.004;2024-01-30T03:52:36;23.57;;;12.77;;
85093;SDS011;75432;49.056;12.004;2024-01-30T03:55:03;38.20;;;19.70;;
85093;SDS011;75432;49.056;12.004;2024-01-30T03:57:30;40.00;;;17.47;;
85093;SDS011;75432;49.056;12.004;2024-01-30T03:59:56;39.93;;;18.30;;
85093;SDS011;75432;49.056;12.004;2024-01-30T04:02:26;40.30;;;21.17;;
85093;SDS011;75432;49.056;12.004;2024-01-30T04:04:52;34.40;;;15.60;;
85093;SDS011;75432;49.056;12.004;2024-01-30T04:07:19;29.67;;;14.90;;
85093;SDS011;75432;49.056;12.004;2024-01-30T04:09:49;40.57;;;20.93;;
85093;SDS011;75432;49.056;12.004;2024-01-30T04:12:16;25.73;;;14.23;;
85093;SDS011;75432;49.056;12.004;2024-01-30T04:14:43;23.63;;;14.03;;
85093;SDS011;75432;49.056;12.004;2024-01-30T04:17:10;43.10;;;20.43;;
85093;SDS011;75432;49.056;12.004;2024-01-30T04:19:39;41.83;;;20.10;;
85093;SDS011;75432;49.056;12.004;2024-01-30T04:22:06;37.70;;;18.23;;
85093;SDS011;75432;49.056;12.004;2024-01-30T04:24:32;40.77;;;19.57;;
85093;SDS011;75432;49.056;12.004;2024-01-30T04:26:59;37.10;;;19.93;;
85093;SDS011;75432;49.056;12.004;2024-01-30T04:29:25;27.10;;;15.20;;
85093;SDS011;75432;49.056;12.004;2024-01-30T04:31:52;42.70;;;21.20;;
85093;SDS011;75432;49.056;12.004;2024-01-30T04:34:18;45.03;;;23.40;;
85093;SDS011;75432;49.056;12.004;2024-01-30T04:36:45;35.83;;;18.87;;
85093;SDS011;75432;49.056;12.004;2024-01-30T04:39:12;37.77;;;19.40;;
85093;SDS011;75432;49.056;12.004;2024-01-30T04:41:39;33.37;;;18.33;;
85093;SDS011;75432;49.056;12.004;2024-01-30T04:44:06;36.37;;;19.93;;
85093;SDS011;75432;49.056;12.004;2024-01-30T04:46:33;38.30;;;19.80;;
85093;SDS011;75432;49.056;12.004;2024-01-30T04:49:00;44.10;;;21.10;;
85093;SDS011;75432;49.056;12.004;2024-01-30T04:51:27;51.70;;;26.50;;
85093;SDS011;75432;49.056;12.004;2024-01-30T04:53:54;46.27;;;22.80;;
85093;SDS011;75432;49.056;12.004;2024-01-30T04:56:21;42.90;;;22.43;;
85093;SDS011;75432;49.056;12.004;2024-01-30T04:58:47;44.33;;;23.20;;
85093;SDS011;75432;49.056;12.004;2024-01-30T05:01:17;46.87;;;25.93;;
85093;SDS011;75432;49.056;12.004;2024-01-30T05:03:43;44.73;;;22.43;;
85093;SDS011;75432;49.056;12.004;2024-01-30T05:06:11;48.67;;;24.27;;
85093;SDS011;75432;49.056;12.004;2024-01-30T05:08:37;46.93;;;24.80;;
85093;SDS011;75432;49.056;12.004;2024-01-30T05:11:05;42.70;;;21.87;;
85093;SDS011;75432;49.056;12.004;2024-01-30T05:13:31;36.97;;;18.13;;
85093;SDS011;75432;49.056;12.004;2024-01-30T05:15:59;39.27;;;20.57;;
85093;SDS011;75432;49.056;12.004;2024-01-30T05:18:27;42.77;;;23.77;;
85093;SDS011;75432;49.056;12.004;2024-01-30T05:20:54;53.30;;;26.73;;
85093;SDS011;75432;49.056;12.004;2024-01-30T05:23:21;37.80;;;21.00;;
85093;SDS011;75432;49.056;12.004;2024-01-30T05:25:47;48.33;;;24.27;;
85093;SDS011;75432;49.056;12.004;2024-01-30T05:28:15;47.03;;;23.73;;
85093;SDS011;75432;49.056;12.004;2024-01-30T05:30:42;37.97;;;19.37;;
85093;SDS011;75432;49.056;12.004;2024-01-30T05:33:08;43.80;;;22.10;;
85093;SDS011;75432;49.056;12.004;2024-01-30T05:35:36;50.63;;;22.80;;
85093;SDS011;75432;49.056;12.004;2024-01-30T05:38:02;36.63;;;19.80;;
85093;SDS011;75432;49.056;12.004;2024-01-30T05:40:29;42.10;;;22.67;;
85093;SDS011;75432;49.056;12.004;2024-01-30T05:42:56;39.53;;;21.53;;
85093;SDS011;75432;49.056;12.004;2024-01-30T05:45:26;40.50;;;22.97;;
85093;SDS011;75432;49.056;12.004;2024-01-30T05:47:53;39.07;;;21.50;;
85093;SDS011;75432;49.056;12.004;2024-01-30T05:50:20;45.23;;;23.77;;
85093;SDS011;75432;49.056;12.004;2024-01-30T05:52:49;49.83;;;23.80;;
85093;SDS011;75432;49.056;12.004;2024-01-30T05:55:16;46.67;;;22.37;;
85093;SDS011;75432;49.056;12.004;2024-01-30T05:57:42;40.27;;;20.23;;
85093;SDS011;75432;49.056;12.004;2024-01-30T06:00:09;33.93;;;15.83;;
85093;SDS011;75432;49.056;12.004;2024-01-30T06:02:36;27.90;;;15.87;;
85093;SDS011;75432;49.056;12.004;2024-01-30T06:05:02;37.70;;;19.07;;
85093;SDS011;75432;49.056;12.004;2024-01-30T06:07:29;38.43;;;20.23;;
85093;SDS011;75432;49.056;12.004;2024-01-30T06:10:01;31.00;;;16.77;;
85093;SDS011;75432;49.056;12.004;2024-01-30T06:12:29;35.40;;;18.30;;
85093;SDS011;75432;49.056;12.004;2024-01-30T06:14:55;35.57;;;19.43;;
85093;SDS011;75432;49.056;12.004;2024-01-30T06:17:23;36.27;;;19.07;;
85093;SDS011;75432;49.056;12.004;2024-01-30T06:19:49;37.07;;;18.67;;
85093;SDS011;75432;49.056;12.004;2024-01-30T06:22:16;33.60;;;18.73;;
85093;SDS011;75432;49.056;12.004;2024-01-30T06:24:43;37.13;;;18.40;;
85093;SDS011;75432;49.056;12.004;2024-01-30T06:27:11;35.33;;;18.07;;
85093;SDS011;75432;49.056;12.004;2024-01-30T06:29:38;28.57;;;14.07;;
85093;SDS011;75432;49.056;12.004;2024-01-30T06:32:04;44.87;;;22.60;;
85093;SDS011;75432;49.056;12.004;2024-01-30T06:34:31;39.17;;;19.97;;
85093;SDS011;75432;49.056;12.004;2024-01-30T06:36:58;43.90;;;20.47;;
85093;SDS011;75432;49.056;12.004;2024-01-30T06:39:25;47.07;;;23.93;;
85093;SDS011;75432;49.056;12.004;2024-01-30T06:41:52;50.67;;;25.40;;
85093;SDS011;75432;49.056;12.004;2024-01-30T06:44:19;43.00;;;23.07;;
85093;SDS011;75432;49.056;12.004;2024-01-30T06:46:45;46.93;;;24.00;;
85093;SDS011;75432;49.056;12.004;2024-01-30T06:49:12;43.37;;;22.27;;
85093;SDS011;75432;49.056;12.004;2024-01-30T06:51:38;41.70;;;22.10;;
85093;SDS011;75432;49.056;12.004;2024-01-30T06:54:05;43.27;;;21.60;;
85093;SDS011;75432;49.056;12.004;2024-01-30T06:56:31;41.67;;;21.50;;
85093;SDS011;75432;49.056;12.004;2024-01-30T06:58:58;42.47;;;21.27;;
85093;SDS011;75432;49.056;12.004;2024-01-30T07:01:29;40.97;;;23.27;;
85093;SDS011;75432;49.056;12.004;2024-01-30T07:03:56;46.00;;;24.63;;
85093;SDS011;75432;49.056;12.004;2024-01-30T07:06:23;49.17;;;23.77;;
85093;SDS011;75432;49.056;12.004;2024-01-30T07:08:50;47.73;;;24.10;;
85093;SDS011;75432;49.056;12.004;2024-01-30T07:11:20;49.37;;;24.13;;
85093;SDS011;75432;49.056;12.004;2024-01-30T07:13:48;35.57;;;19.10;;
85093;SDS011;75432;49.056;12.004;2024-01-30T07:16:15;45.60;;;23.10;;
85093;SDS011;75432;49.056;12.004;2024-01-30T07:18:41;33.53;;;18.20;;
85093;SDS011;75432;49.056;12.004;2024-01-30T07:21:09;40.90;;;20.77;;
85093;SDS011;75432;49.056;12.004;2024-01-30T07:23:36;40.37;;;21.23;;
85093;SDS011;75432;49.056;12.004;2024-01-30T07:26:05;36.70;;;17.63;;
85093;SDS011;75432;49.056;12.004;2024-01-30T07:28:33;38.63;;;21.17;;
85093;SDS011;75432;49.056;12.004;2024-01-30T07:30:59;37.20;;;19.83;;
85093;SDS011;75432;49.056;12.004;2024-01-30T07:33:26;35.63;;;19.17;;
85093;SDS011;75432;49.056;12.004;2024-01-30T07:35:53;39.17;;;20.13;;
85093;SDS011;75432;49.056;12.004;2024-01-30T07:38:20;41.13;;;20.77;;
85093;SDS011;75432;49.056;12.004;2024-01-30T07:40:46;39.70;;;19.43;;
85093;SDS011;75432;49.056;12.004;2024-01-30T07:43:13;38.03;;;20.57;;
85093;SDS011;75432;49.056;12.004;2024-01-30T07:45:39;42.43;;;22.67;;
85093;SDS011;75432;49.056;12.004;2024-01-30T07:48:06;45.57;;;23.27;;
85093;SDS011;75432;49.056;12.004;2024-01-30T07:50:33;45.30;;;25.53;;
85093;SDS011;75432;49.056;12.004;2024-01-30T07:53:00;44.40;;;24.53;;
85093;SDS011;75432;49.056;12.004;2024-01-30T07:55:27;42.20;;;22.40;;
85093;SDS011;75432;49.056;12.004;2024-01-30T07:57:55;41.93;;;24.60;;
85093;SDS011;75432;49.056;12.004;2024-01-30T08:00:22;49.20;;;23.07;;
85093;SDS011;75432;49.056;12.004;2024-01-30T08:02:48;41.10;;;23.07;;
85093;SDS011;75432;49.056;12.004;2024-01-30T08:05:15;34.93;;;20.17;;
85093;SDS011;75432;49.056;12.004;2024-01-30T08:07:41;33.67;;;18.27;;
85093;SDS011;75432;49.056;12.004;2024-01-30T08:10:12;38.93;;;21.80;;
85093;SDS011;75432;49.056;12.004;2024-01-30T08:12:41;42.47;;;22.60;;
85093;SDS011;75432;49.056;12.004;2024-01-30T08:15:08;31.63;;;17.27;;
85093;SDS011;75432;49.056;12.004;2024-01-30T08:17:35;34.57;;;21.33;;
85093;SDS011;75432;49.056;12.004;2024-01-30T08:20:01;38.60;;;20.93;;
85093;SDS011;75432;49.056;12.004;2024-01-30T08:22:30;34.43;;;20.23;;
85093;SDS011;75432;49.056;12.004;2024-01-30T08:24:57;35.43;;;20.47;;
85093;SDS011;75432;49.056;12.004;2024-01-30T08:27:23;40.40;;;19.07;;
85093;SDS011;75432;49.056;12.004;2024-01-30T08:29:50;42.37;;;21.67;;
85093;SDS011;75432;49.056;12.004;2024-01-30T08:32:16;42.53;;;22.00;;
85093;SDS011;75432;49.056;12.004;2024-01-30T08:34:43;39.70;;;21.20;;
85093;SDS011;75432;49.056;12.004;2024-01-30T08:37:09;37.93;;;20.20;;
85093;SDS011;75432;49.056;12.004;2024-01-30T08:39:37;38.03;;;20.97;;
85093;SDS011;75432;49.056;12.004;2024-01-30T08:42:03;38.60;;;21.80;;
85093;SDS011;75432;49.056;12.004;2024-01-30T08:44:30;42.83;;;21.43;;
85093;SDS011;75432;49.056;12.004;2024-01-30T08:46:57;36.87;;;19.93;;
85093;SDS011;75432;49.056;12.004;2024-01-30T08:49:25;37.50;;;20.43;;
85093;SDS011;75432;49.056;12.004;2024-01-30T08:51:52;47.17;;;23.03;;
85093;SDS011;75432;49.056;12.004;2024-01-30T08:54:18;44.17;;;23.03;;
85093;SDS011;75432;49.056;12.004;2024-01-30T08:56:45;41.77;;;23.00;;
85093;SDS011;75432;49.056;12.004;2024-01-30T08:59:11;39.43;;;20.70;;
85093;SDS011;75432;49.056;12.004;2024-01-30T09:01:39;43.23;;;22.47;;
85093;SDS011;75432;49.056;12.004;2024-01-30T09:04:09;36.23;;;20.60;;
85093;SDS011;75432;49.056;12.004;2024-01-30T09:06:36;39.90;;;22.87;;
85093;SDS011;75432;49.056;12.004;2024-01-30T09:09:05;40.03;;;20.87;;
85093;SDS011;75432;49.056;12.004;2024-01-30T09:11:32;30.97;;;17.00;;
85093;SDS011;75432;49.056;12.004;2024-01-30T09:13:58;44.93;;;24.43;;
85093;SDS011;75432;49.056;12.004;2024-01-30T09:16:25;36.50;;;21.03;;
85093;SDS011;75432;49.056;12.004;2024-01-30T09:18:51;46.63;;;25.60;;
85093;SDS011;75432;49.056;12.004;2024-01-30T09:21:18;41.33;;;22.17;;
85093;SDS011;75432;49.056;12.004;2024-01-30T09:23:45;37.70;;;22.73;;
85093;SDS011;75432;49.056;12.004;2024-01-30T09:26:11;39.27;;;22.83;;
85093;SDS011;75432;49.056;12.004;2024-01-30T09:28:38;37.33;;;21.30;;
85093;SDS011;75432;49.056;12.004;2024-01-30T09:31:09;37.17;;;21.30;;
85093;SDS011;75432;49.056;12.004;2024-01-30T09:33:36;37.43;;;20.33;;
85093;SDS011;75432;49.056;12.004;2024-01-30T09:36:03;40.37;;;23.23;;
85093;SDS011;75432;49.056;12.004;2024-01-30T09:38:30;46.30;;;25.17;;
85093;SDS011;75432;49.056;12.004;2024-01-30T09:40:56;47.47;;;24.90;;
85093;SDS011;75432;49.056;12.004;2024-01-30T09:43:31;45.80;;;24.63;;
85093;SDS011;75432;49.056;12.004;2024-01-30T09:45:59;38.00;;;22.60;;
85093;SDS011;75432;49.056;12.004;2024-01-30T09:48:29;39.03;;;22.27;;
85093;SDS011;75432;49.056;12.004;2024-01-30T09:50:56;40.63;;;23.13;;
85093;SDS011;75432;49.056;12.004;2024-01-30T09:53:23;40.70;;;23.70;;
85093;SDS011;75432;49.056;12.004;2024-01-30T09:55:51;41.17;;;22.50;;
85093;SDS011;75432;49.056;12.004;2024-01-30T09:58:17;39.87;;;23.43;;
85093;SDS011;75432;49.056;12.004;2024-01-30T10:00:44;39.30;;;22.43;;
85093;SDS011;75432;49.056;12.004;2024-01-30T10:03:10;40.20;;;23.13;;
85093;SDS011;75432;49.056;12.004;2024-01-30T10:05:37;38.03;;;22.37;;
85093;SDS011;75432;49.056;12.004;2024-01-30T10:08:06;35.27;;;20.80;;
85093;SDS011;75432;49.056;12.004;2024-01-30T10:10:36;36.27;;;21.83;;
85093;SDS011;75432;49.056;12.004;2024-01-30T10:13:03;48.83;;;26.43;;
85093;SDS011;75432;49.056;12.004;2024-01-30T10:15:31;35.70;;;22.73;;
85093;SDS011;75432;49.056;12.004;2024-01-30T10:17:58;38.27;;;21.10;;
85093;SDS011;75432;49.056;12.004;2024-01-30T10:20:25;43.90;;;24.23;;
85093;SDS011;75432;49.056;12.004;2024-01-30T10:22:52;41.07;;;22.40;;
85093;SDS011;75432;49.056;12.004;2024-01-30T10:25:19;37.60;;;23.47;;
85093;SDS011;75432;49.056;12.004;2024-01-30T10:27:51;32.83;;;20.60;;
85093;SDS011;75432;49.056;12.004;2024-01-30T10:30:19;35.53;;;21.07;;
85093;SDS011;75432;49.056;12.004;2024-01-30T10:32:46;36.20;;;20.03;;
85093;SDS011;75432;49.056;12.004;2024-01-30T10:35:12;37.33;;;21.97;;
85093;SDS011;75432;49.056;12.004;2024-01-30T10:37:39;36.53;;;22.07;;
85093;SDS011;75432;49.056;12.004;2024-01-30T10:40:06;39.43;;;21.93;;
85093;SDS011;75432;49.056;12.004;2024-01-30T10:42:36;34.43;;;20.67;;
85093;SDS011;75432;49.056;12.004;2024-01-30T10:45:08;34.03;;;21.23;;
85093;SDS011;75432;49.056;12.004;2024-01-30T10:47:36;35.63;;;21.73;;
85093;SDS011;75432;49.056;12.004;2024-01-30T10:50:03;36.17;;;20.83;;
85093;SDS011;75432;49.056;12.004;2024-01-30T10:52:31;38.27;;;21.30;;
85093;SDS011;75432;49.056;12.004;2024-01-30T10:54:58;30.80;;;20.93;;
85093;SDS011;75432;49.056;12.004;2024-01-30T10:57:26;33.73;;;21.10;;
85093;SDS011;75432;49.056;12.004;2024-01-30T10:59:55;36.80;;;21.93;;
85093;SDS011;75432;49.056;12.004;2024-01-30T11:02:23;31.30;;;19.57;;
85093;SDS011;75432;49.056;12.004;2024-01-30T11:04:55;29.07;;;18.73;;
85093;SDS011;75432;49.056;12.004;2024-01-30T11:07:24;30.00;;;19.20;;
85093;SDS011;75432;49.056;12.004;2024-01-30T11:09:53;39.47;;;22.83;;
85093;SDS011;75432;49.056;12.004;2024-01-30T11:12:30;31.42;;;21.20;;
85093;SDS011;75432;49.056;12.004;2024-01-30T11:15:01;30.40;;;20.90;;
85093;SDS011;75432;49.056;12.004;2024-01-30T11:20:20;29.33;;;21.35;;
85093;SDS011;75432;49.056;12.004;2024-01-30T11:22:53;26.38;;;20.92;;
85093;SDS011;75432;49.056;12.004;2024-01-30T11:25:21;25.13;;;18.23;;
85093;SDS011;75432;49.056;12.004;2024-01-30T11:27:52;28.52;;;20.45;;
85093;SDS011;75432;49.056;12.004;2024-01-30T11:30:24;23.63;;;17.20;;
85093;SDS011;75432;49.056;12.004;2024-01-30T11:33:01;22.52;;;18.20;;
85093;SDS011;75432;49.056;12.004;2024-01-30T11:35:32;22.67;;;16.20;;
85093;SDS011;75432;49.056;12.004;2024-01-30T11:37:59;24.02;;;18.02;;
85093;SDS011;75432;49.056;12.004;2024-01-30T11:40:27;24.90;;;17.73;;
85093;SDS011;75432;49.056;12.004;2024-01-30T11:42:56;22.20;;;17.80;;
85093;SDS011;75432;49.056;12.004;2024-01-30T11:45:24;25.85;;;17.67;;
85093;SDS011;75432;49.056;12.004;2024-01-30T11:47:50;24.77;;;17.75;;
85093;SDS011;75432;49.056;12.004;2024-01-30T11:50:17;19.85;;;16.02;;
85093;SDS011;75432;49.056;12.004;2024-01-30T11:52:44;21.25;;;16.73;;
85093;SDS011;75432;49.056;12.004;2024-01-30T11:55:11;24.23;;;19.17;;
85093;SDS011;75432;49.056;12.004;2024-01-30T11:57:39;22.50;;;17.83;;
85093;SDS011;75432;49.056;12.004;2024-01-30T12:00:06;24.38;;;16.65;;
85093;SDS011;75432;49.056;12.004;2024-01-30T12:02:40;22.13;;;18.13;;
85093;SDS011;75432;49.056;12.004;2024-01-30T12:05:06;25.02;;;19.10;;
85093;SDS011;75432;49.056;12.004;2024-01-30T12:07:33;21.77;;;17.40;;
85093;SDS011;75432;49.056;12.004;2024-01-30T12:10:00;25.45;;;18.30;;
85093;SDS011;75432;49.056;12.004;2024-01-30T12:12:27;26.30;;;17.60;;
85093;SDS011;75432;49.056;12.004;2024-01-30T12:14:55;27.15;;;18.88;;
85093;SDS011;75432;49.056;12.004;2024-01-30T12:17:34;29.48;;;18.50;;
85093;SDS011;75432;49.056;12.004;2024-01-30T12:22:42;24.83;;;17.98;;
85093;SDS011;75432;49.056;12.004;2024-01-30T12:25:10;27.15;;;17.27;;
85093;SDS011;75432;49.056;12.004;2024-01-30T12:27:37;22.90;;;15.82;;
85093;SDS011;75432;49.056;12.004;2024-01-30T12:30:05;31.63;;;18.77;;
85093;SDS011;75432;49.056;12.004;2024-01-30T12:32:36;30.75;;;18.45;;
85093;SDS011;75432;49.056;12.004;2024-01-30T12:35:03;32.75;;;20.45;;
85093;SDS011;75432;49.056;12.004;2024-01-30T12:37:34;26.53;;;18.37;;
85093;SDS011;75432;49.056;12.004;2024-01-30T12:40:01;30.73;;;19.03;;
85093;SDS011;75432;49.056;12.004;2024-01-30T12:42:28;27.63;;;16.73;;
85093;SDS011;75432;49.056;12.004;2024-01-30T12:44:57;30.47;;;17.90;;
85093;SDS011;75432;49.056;12.004;2024-01-30T12:47:24;26.23;;;17.40;;
85093;SDS011;75432;49.056;12.004;2024-01-30T12:49:50;25.60;;;16.93;;
85093;SDS011;75432;49.056;12.004;2024-01-30T12:52:20;22.07;;;13.70;;
85093;SDS011;75432;49.056;12.004;2024-01-30T12:54:48;28.27;;;17.30;;
85093;SDS011;75432;49.056;12.004;2024-01-30T12:57:15;26.33;;;17.90;;
85093;SDS011;75432;49.056;12.004;2024-01-30T12:59:42;29.17;;;18.27;;
85093;SDS011;75432;49.056;12.004;2024-01-30T13:02:10;30.53;;;18.37;;
85093;SDS011;75432;49.056;12.004;2024-01-30T13:04:37;28.53;;;17.97;;
85093;SDS011;75432;49.056;12.004;2024-01-30T13:07:04;26.97;;;18.17;;
85093;SDS011;75432;49.056;12.004;2024-01-30T13:09:30;28.67;;;18.37;;
85093;SDS011;75432;49.056;12.004;2024-01-30T13:11:58;29.23;;;18.07;;
85093;SDS011;75432;49.056;12.004;2024-01-30T13:14:24;29.60;;;16.93;;
85093;SDS011;75432;49.056;12.004;2024-01-30T13:16:52;29.53;;;17.03;;
85093;SDS011;75432;49.056;12.004;2024-01-30T13:19:19;24.30;;;17.20;;
85093;SDS011;75432;49.056;12.004;2024-01-30T13:21:45;31.20;;;18.30;;
85093;SDS011;75432;49.056;12.004;2024-01-30T13:24:12;31.53;;;18.83;;
85093;SDS011;75432;49.056;12.004;2024-01-30T13:26:39;27.70;;;16.47;;
85093;SDS011;75432;49.056;12.004;2024-01-30T13:29:05;24.97;;;15.97;;
85093;SDS011;75432;49.056;12.004;2024-01-30T13:31:32;28.67;;;17.53;;
85093;SDS011;75432;49.056;12.004;2024-01-30T13:33:58;31.53;;;18.60;;
85093;SDS011;75432;49.056;12.004;2024-01-30T13:36:25;25.17;;;16.27;;
85093;SDS011;75432;49.056;12.004;2024-01-30T13:38:52;28.27;;;18.20;;
85093;SDS011;75432;49.056;12.004;2024-01-30T13:41:18;29.37;;;16.57;;
85093;SDS011;75432;49.056;12.004;2024-01-30T13:43:45;24.00;;;15.50;;
85093;SDS011;75432;49.056;12.004;2024-01-30T13:46:11;28.43;;;17.07;;
85093;SDS011;75432;49.056;12.004;2024-01-30T13:48:38;24.00;;;15.17;;
85093;SDS011;75432;49.056;12.004;2024-01-30T13:51:04;22.53;;;15.80;;
85093;SDS011;75432;49.056;12.004;2024-01-30T13:53:31;24.27;;;16.67;;
85093;SDS011;75432;49.056;12.004;2024-01-30T13:55:58;18.83;;;12.60;;
85093;SDS011;75432;49.056;12.004;2024-01-30T13:58:24;28.43;;;14.83;;
85093;SDS011;75432;49.056;12.004;2024-01-30T14:00:51;30.73;;;19.17;;
85093;SDS011;75432;49.056;12.004;2024-01-30T14:03:18;29.87;;;17.47;;
85093;SDS011;75432;49.056;12.004;2024-01-30T14:05:44;30.90;;;18.10;;
85093;SDS011;75432;49.056;12.004;2024-01-30T14:08:11;29.67;;;16.23;;
85093;SDS011;75432;49.056;12.004;2024-01-30T14:10:38;26.40;;;17.33;;
85093;SDS011;75432;49.056;12.004;2024-01-30T14:13:04;23.37;;;15.30;;